sensor_id;sensor_type;location;lat;lon;timestamp;temperature;humidity
490;DHT22;231;48.120;11.576;2023-05-07T00:05:53;11.80;93.90
490;DHT22;231;48.120;11.576;2023-05-07T00:08:20;11.80;94.00
490;DHT22;231;48.120;11.576;2023-05-07T00:10:47;11.80;94.20
490;DHT22;231;48.120;11.576;2023-05-07T00:13:14;11.80;94.20
490;DHT22;231;48.120;11.576;2023-05-07T00:15:41;11.80;94.20
490;DHT22;231;48.120;11.576;2023-05-07T00:18:07;11.80;94.10
490;DHT22;231;48.120;11.576;2023-05-07T00:20:34;11.80;94.20
490;DHT22;231;48.120;11.576;2023-05-07T00:23:02;11.80;94.10
490;DHT22;231;48.120;11.576;2023-05-07T00:25:29;11.80;94.20
490;DHT22;231;48.120;11.576;2023-05-07T00:27:56;11.80;94.00
490;DHT22;231;48.120;11.576;2023-05-07T00:30:29;11.70;93.80
490;DHT22;231;48.120;11.576;2023-05-07T00:32:55;11.70;93.70
490;DHT22;231;48.120;11.576;2023-05-07T00:35:23;11.70;93.80
490;DHT22;231;48.120;11.576;2023-05-07T00:37:49;11.60;93.80
490;DHT22;231;48.120;11.576;2023-05-07T00:40:18;11.60;93.60
490;DHT22;231;48.120;11.576;2023-05-07T00:42:44;11.60;93.20
490;DHT22;231;48.120;11.576;2023-05-07T00:45:12;11.50;92.80
490;DHT22;231;48.120;11.576;2023-05-07T00:47:39;11.50;93.30
490;DHT22;231;48.120;11.576;2023-05-07T00:50:12;11.50;94.60
490;DHT22;231;48.120;11.576;2023-05-07T00:53:20;11.60;95.40
490;DHT22;231;48.120;11.576;2023-05-07T00:55:47;11.60;95.90
490;DHT22;231;48.120;11.576;2023-05-07T00:58:14;11.70;96.00
490;DHT22;231;48.120;11.576;2023-05-07T01:00:42;11.70;96.00
490;DHT22;231;48.120;11.576;2023-05-07T01:03:08;11.70;95.90
490;DHT22;231;48.120;11.576;2023-05-07T01:05:35;11.70;95.90
490;DHT22;231;48.120;11.576;2023-05-07T01:08:03;11.70;95.60
490;DHT22;231;48.120;11.576;2023-05-07T01:10:32;11.70;95.40
490;DHT22;231;48.120;11.576;2023-05-07T01:12:59;11.70;95.30
490;DHT22;231;48.120;11.576;2023-05-07T01:15:27;11.80;95.20
490;DHT22;231;48.120;11.576;2023-05-07T01:17:54;11.80;95.10
490;DHT22;231;48.120;11.576;2023-05-07T01:20:22;11.80;95.30
490;DHT22;231;48.120;11.576;2023-05-07T01:22:51;11.80;94.90
490;DHT22;231;48.120;11.576;2023-05-07T01:25:18;11.80;94.90
490;DHT22;231;48.120;11.576;2023-05-07T01:27:45;11.80;95.00
490;DHT22;231;48.120;11.576;2023-05-07T01:30:12;11.80;95.10
490;DHT22;231;48.120;11.576;2023-05-07T01:32:43;11.80;95.10
490;DHT22;231;48.120;11.576;2023-05-07T01:35:12;11.80;95.20
490;DHT22;231;48.120;11.576;2023-05-07T01:37:40;11.80;95.40
490;DHT22;231;48.120;11.576;2023-05-07T01:40:10;11.80;95.30
490;DHT22;231;48.120;11.576;2023-05-07T01:42:37;11.90;94.90
490;DHT22;231;48.120;11.576;2023-05-07T01:45:05;11.90;94.60
490;DHT22;231;48.120;11.576;2023-05-07T01:47:32;11.80;94.10
490;DHT22;231;48.120;11.576;2023-05-07T01:50:00;11.80;93.90
490;DHT22;231;48.120;11.576;2023-05-07T01:52:28;11.80;93.70
490;DHT22;231;48.120;11.576;2023-05-07T01:54:55;11.80;93.40
490;DHT22;231;48.120;11.576;2023-05-07T01:57:23;11.80;93.20
490;DHT22;231;48.120;11.576;2023-05-07T01:59:50;11.80;93.00
490;DHT22;231;48.120;11.576;2023-05-07T02:02:17;11.80;92.90
490;DHT22;231;48.120;11.576;2023-05-07T02:04:44;11.70;92.90
490;DHT22;231;48.120;11.576;2023-05-07T02:07:11;11.70;92.80
490;DHT22;231;48.120;11.576;2023-05-07T02:09:38;11.70;92.80
490;DHT22;231;48.120;11.576;2023-05-07T02:12:04;11.70;92.80
490;DHT22;231;48.120;11.576;2023-05-07T02:14:33;11.70;92.90
490;DHT22;231;48.120;11.576;2023-05-07T02:16:59;11.60;92.90
490;DHT22;231;48.120;11.576;2023-05-07T02:19:26;11.60;93.20
490;DHT22;231;48.120;11.576;2023-05-07T02:21:53;11.60;93.40
490;DHT22;231;48.120;11.576;2023-05-07T02:24:20;11.60;93.70
490;DHT22;231;48.120;11.576;2023-05-07T02:26:47;11.60;94.00
490;DHT22;231;48.120;11.576;2023-05-07T02:29:14;11.60;94.50
490;DHT22;231;48.120;11.576;2023-05-07T02:31:42;11.60;94.90
490;DHT22;231;48.120;11.576;2023-05-07T02:34:09;11.60;95.00
490;DHT22;231;48.120;11.576;2023-05-07T02:36:36;11.60;94.70
490;DHT22;231;48.120;11.576;2023-05-07T02:39:03;11.50;94.50
490;DHT22;231;48.120;11.576;2023-05-07T02:41:30;11.50;94.50
490;DHT22;231;48.120;11.576;2023-05-07T02:43:57;11.50;94.40
490;DHT22;231;48.120;11.576;2023-05-07T02:46:24;11.50;94.30
490;DHT22;231;48.120;11.576;2023-05-07T02:48:52;11.40;94.30
490;DHT22;231;48.120;11.576;2023-05-07T02:51:20;11.40;94.40
490;DHT22;231;48.120;11.576;2023-05-07T02:53:47;11.40;94.40
490;DHT22;231;48.120;11.576;2023-05-07T02:56:14;11.40;94.30
490;DHT22;231;48.120;11.576;2023-05-07T02:58:41;11.40;94.20
490;DHT22;231;48.120;11.576;2023-05-07T03:01:08;11.40;94.00
490;DHT22;231;48.120;11.576;2023-05-07T03:03:35;11.30;93.90
490;DHT22;231;48.120;11.576;2023-05-07T03:06:04;11.30;93.70
490;DHT22;231;48.120;11.576;2023-05-07T03:08:31;11.30;93.70
490;DHT22;231;48.120;11.576;2023-05-07T03:10:57;11.30;93.60
490;DHT22;231;48.120;11.576;2023-05-07T03:13:24;11.20;93.60
490;DHT22;231;48.120;11.576;2023-05-07T03:15:51;11.20;93.10
490;DHT22;231;48.120;11.576;2023-05-07T03:18:18;11.10;93.10
490;DHT22;231;48.120;11.576;2023-05-07T03:20:45;11.10;92.90
490;DHT22;231;48.120;11.576;2023-05-07T03:23:13;11.10;92.90
490;DHT22;231;48.120;11.576;2023-05-07T03:25:40;11.10;93.20
490;DHT22;231;48.120;11.576;2023-05-07T03:28:07;11.10;93.40
490;DHT22;231;48.120;11.576;2023-05-07T03:30:34;11.10;93.60
490;DHT22;231;48.120;11.576;2023-05-07T03:33:00;11.10;93.60
490;DHT22;231;48.120;11.576;2023-05-07T03:35:27;11.00;93.60
490;DHT22;231;48.120;11.576;2023-05-07T03:37:54;11.10;94.10
490;DHT22;231;48.120;11.576;2023-05-07T03:40:22;11.00;94.50
490;DHT22;231;48.120;11.576;2023-05-07T03:42:49;11.10;95.00
490;DHT22;231;48.120;11.576;2023-05-07T03:45:16;11.10;95.40
490;DHT22;231;48.120;11.576;2023-05-07T03:47:43;11.00;95.50
490;DHT22;231;48.120;11.576;2023-05-07T03:50:10;11.00;95.50
490;DHT22;231;48.120;11.576;2023-05-07T03:52:37;11.00;95.20
490;DHT22;231;48.120;11.576;2023-05-07T03:55:04;11.00;95.10
490;DHT22;231;48.120;11.576;2023-05-07T03:57:33;11.00;95.00
490;DHT22;231;48.120;11.576;2023-05-07T03:59:59;11.00;94.80
490;DHT22;231;48.120;11.576;2023-05-07T04:02:26;10.90;94.70
490;DHT22;231;48.120;11.576;2023-05-07T04:04:53;10.90;94.70
490;DHT22;231;48.120;11.576;2023-05-07T04:07:20;10.90;95.00
490;DHT22;231;48.120;11.576;2023-05-07T04:09:47;10.90;95.00
490;DHT22;231;48.120;11.576;2023-05-07T04:12:14;10.90;95.10
490;DHT22;231;48.120;11.576;2023-05-07T04:14:43;10.90;95.30
490;DHT22;231;48.120;11.576;2023-05-07T04:17:09;10.90;95.60
490;DHT22;231;48.120;11.576;2023-05-07T04:19:36;11.00;95.80
490;DHT22;231;48.120;11.576;2023-05-07T04:22:03;11.00;96.10
490;DHT22;231;48.120;11.576;2023-05-07T04:24:58;11.00;96.50
490;DHT22;231;48.120;11.576;2023-05-07T04:34:42;11.20;96.90
490;DHT22;231;48.120;11.576;2023-05-07T04:37:09;11.30;96.80
490;DHT22;231;48.120;11.576;2023-05-07T04:39:36;11.30;97.00
490;DHT22;231;48.120;11.576;2023-05-07T04:42:03;11.40;97.40
490;DHT22;231;48.120;11.576;2023-05-07T04:44:31;11.50;97.50
490;DHT22;231;48.120;11.576;2023-05-07T04:46:58;11.60;97.80
490;DHT22;231;48.120;11.576;2023-05-07T04:49:24;11.80;97.90
490;DHT22;231;48.120;11.576;2023-05-07T04:51:53;11.90;97.50
490;DHT22;231;48.120;11.576;2023-05-07T04:54:19;12.00;96.50
490;DHT22;231;48.120;11.576;2023-05-07T04:56:46;12.10;95.20
490;DHT22;231;48.120;11.576;2023-05-07T04:59:13;12.30;93.70
490;DHT22;231;48.120;11.576;2023-05-07T05:01:40;12.30;91.10
490;DHT22;231;48.120;11.576;2023-05-07T05:04:07;12.40;87.50
490;DHT22;231;48.120;11.576;2023-05-07T05:06:33;12.50;83.60
490;DHT22;231;48.120;11.576;2023-05-07T05:09:02;12.60;80.50
490;DHT22;231;48.120;11.576;2023-05-07T05:11:30;12.60;77.20
490;DHT22;231;48.120;11.576;2023-05-07T05:13:58;12.70;73.40
490;DHT22;231;48.120;11.576;2023-05-07T05:16:26;12.70;70.10
490;DHT22;231;48.120;11.576;2023-05-07T05:18:53;12.70;67.50
490;DHT22;231;48.120;11.576;2023-05-07T05:21:20;12.80;65.50
490;DHT22;231;48.120;11.576;2023-05-07T05:23:47;12.90;63.90
490;DHT22;231;48.120;11.576;2023-05-07T05:26:15;12.90;62.80
490;DHT22;231;48.120;11.576;2023-05-07T05:28:42;13.00;62.80
490;DHT22;231;48.120;11.576;2023-05-07T05:31:09;13.10;62.10
490;DHT22;231;48.120;11.576;2023-05-07T05:33:36;13.30;61.10
490;DHT22;231;48.120;11.576;2023-05-07T05:36:03;13.40;59.70
490;DHT22;231;48.120;11.576;2023-05-07T05:38:30;13.50;57.70
490;DHT22;231;48.120;11.576;2023-05-07T05:40:57;13.60;55.40
490;DHT22;231;48.120;11.576;2023-05-07T05:43:25;13.70;54.60
490;DHT22;231;48.120;11.576;2023-05-07T05:45:52;13.90;53.70
490;DHT22;231;48.120;11.576;2023-05-07T05:48:19;14.10;52.30
490;DHT22;231;48.120;11.576;2023-05-07T05:50:45;14.20;50.30
490;DHT22;231;48.120;11.576;2023-05-07T05:53:12;14.50;47.50
490;DHT22;231;48.120;11.576;2023-05-07T05:55:39;14.70;46.00
490;DHT22;231;48.120;11.576;2023-05-07T05:58:06;15.10;45.60
490;DHT22;231;48.120;11.576;2023-05-07T06:00:34;16.30;43.00
490;DHT22;231;48.120;11.576;2023-05-07T06:03:01;18.20;31.20
490;DHT22;231;48.120;11.576;2023-05-07T06:05:28;20.30;20.40
490;DHT22;231;48.120;11.576;2023-05-07T06:07:55;22.40;13.90
490;DHT22;231;48.120;11.576;2023-05-07T06:10:22;24.50;9.70
490;DHT22;231;48.120;11.576;2023-05-07T06:12:49;26.40;4.80
490;DHT22;231;48.120;11.576;2023-05-07T06:15:16;28.10;1.00
490;DHT22;231;48.120;11.576;2023-05-07T06:17:44;29.50;1.00
490;DHT22;231;48.120;11.576;2023-05-07T06:20:11;30.60;1.00
490;DHT22;231;48.120;11.576;2023-05-07T06:22:38;31.80;1.00
490;DHT22;231;48.120;11.576;2023-05-07T06:25:05;32.50;1.00
490;DHT22;231;48.120;11.576;2023-05-07T06:27:32;32.90;1.00
490;DHT22;231;48.120;11.576;2023-05-07T06:29:59;33.30;1.00
490;DHT22;231;48.120;11.576;2023-05-07T06:32:26;33.70;1.00
490;DHT22;231;48.120;11.576;2023-05-07T06:34:54;34.30;1.00
490;DHT22;231;48.120;11.576;2023-05-07T06:37:21;35.10;1.00
490;DHT22;231;48.120;11.576;2023-05-07T06:39:48;36.10;1.00
490;DHT22;231;48.120;11.576;2023-05-07T06:42:15;37.00;1.00
490;DHT22;231;48.120;11.576;2023-05-07T06:44:42;37.90;1.00
490;DHT22;231;48.120;11.576;2023-05-07T06:47:09;38.20;1.00
490;DHT22;231;48.120;11.576;2023-05-07T06:49:35;38.20;1.00
490;DHT22;231;48.120;11.576;2023-05-07T06:52:04;38.20;1.00
490;DHT22;231;48.120;11.576;2023-05-07T06:54:30;38.50;1.00
490;DHT22;231;48.120;11.576;2023-05-07T06:56:57;39.30;1.00
490;DHT22;231;48.120;11.576;2023-05-07T06:59:24;39.90;1.00
490;DHT22;231;48.120;11.576;2023-05-07T07:01:51;40.30;1.00
490;DHT22;231;48.120;11.576;2023-05-07T07:04:18;40.30;1.00
490;DHT22;231;48.120;11.576;2023-05-07T07:06:45;40.20;1.00
490;DHT22;231;48.120;11.576;2023-05-07T07:09:14;39.90;1.00
490;DHT22;231;48.120;11.576;2023-05-07T07:11:40;39.90;1.00
490;DHT22;231;48.120;11.576;2023-05-07T07:14:07;39.70;1.00
490;DHT22;231;48.120;11.576;2023-05-07T07:16:34;39.50;1.00
490;DHT22;231;48.120;11.576;2023-05-07T07:19:01;39.70;1.00
490;DHT22;231;48.120;11.576;2023-05-07T07:21:28;39.90;1.00
490;DHT22;231;48.120;11.576;2023-05-07T07:23:55;40.40;1.00
490;DHT22;231;48.120;11.576;2023-05-07T07:26:23;41.30;1.00
490;DHT22;231;48.120;11.576;2023-05-07T07:28:50;42.60;1.00
490;DHT22;231;48.120;11.576;2023-05-07T07:31:17;43.30;1.00
490;DHT22;231;48.120;11.576;2023-05-07T07:33:44;43.80;1.00
490;DHT22;231;48.120;11.576;2023-05-07T07:36:10;43.50;1.00
490;DHT22;231;48.120;11.576;2023-05-07T07:38:37;43.40;1.00
490;DHT22;231;48.120;11.576;2023-05-07T07:41:04;44.00;1.00
490;DHT22;231;48.120;11.576;2023-05-07T07:43:32;44.20;1.00
490;DHT22;231;48.120;11.576;2023-05-07T07:45:59;45.00;1.00
490;DHT22;231;48.120;11.576;2023-05-07T07:48:26;45.10;1.00
490;DHT22;231;48.120;11.576;2023-05-07T07:50:53;44.70;1.00
490;DHT22;231;48.120;11.576;2023-05-07T07:53:20;44.90;1.00
490;DHT22;231;48.120;11.576;2023-05-07T07:55:46;45.50;1.00
490;DHT22;231;48.120;11.576;2023-05-07T07:58:13;45.60;1.00
490;DHT22;231;48.120;11.576;2023-05-07T08:00:41;46.10;1.00
490;DHT22;231;48.120;11.576;2023-05-07T08:03:09;46.00;1.00
490;DHT22;231;48.120;11.576;2023-05-07T08:05:36;45.60;1.00
490;DHT22;231;48.120;11.576;2023-05-07T08:08:04;45.80;1.00
490;DHT22;231;48.120;11.576;2023-05-07T08:10:31;45.80;1.00
490;DHT22;231;48.120;11.576;2023-05-07T08:13:00;46.70;1.00
490;DHT22;231;48.120;11.576;2023-05-07T08:15:27;46.60;1.00
490;DHT22;231;48.120;11.576;2023-05-07T08:17:55;46.40;1.00
490;DHT22;231;48.120;11.576;2023-05-07T08:20:23;45.80;1.00
490;DHT22;231;48.120;11.576;2023-05-07T08:22:49;45.30;1.00
490;DHT22;231;48.120;11.576;2023-05-07T08:25:17;45.30;1.00
490;DHT22;231;48.120;11.576;2023-05-07T08:27:45;45.50;1.00
490;DHT22;231;48.120;11.576;2023-05-07T08:30:13;45.90;1.00
490;DHT22;231;48.120;11.576;2023-05-07T08:32:40;45.90;1.00
490;DHT22;231;48.120;11.576;2023-05-07T08:35:09;45.50;1.00
490;DHT22;231;48.120;11.576;2023-05-07T08:37:36;44.70;1.00
490;DHT22;231;48.120;11.576;2023-05-07T08:40:03;43.60;1.00
490;DHT22;231;48.120;11.576;2023-05-07T08:42:31;43.50;1.00
490;DHT22;231;48.120;11.576;2023-05-07T08:44:59;44.10;1.00
490;DHT22;231;48.120;11.576;2023-05-07T08:47:31;44.60;1.00
490;DHT22;231;48.120;11.576;2023-05-07T08:50:00;44.60;1.00
490;DHT22;231;48.120;11.576;2023-05-07T08:52:29;43.60;1.00
490;DHT22;231;48.120;11.576;2023-05-07T08:54:56;42.90;1.00
490;DHT22;231;48.120;11.576;2023-05-07T08:57:23;42.20;1.00
490;DHT22;231;48.120;11.576;2023-05-07T08:59:50;42.20;1.00
490;DHT22;231;48.120;11.576;2023-05-07T09:02:17;43.10;1.00
490;DHT22;231;48.120;11.576;2023-05-07T09:04:44;43.30;1.00
490;DHT22;231;48.120;11.576;2023-05-07T09:07:11;43.60;1.00
490;DHT22;231;48.120;11.576;2023-05-07T09:09:39;43.90;1.00
490;DHT22;231;48.120;11.576;2023-05-07T09:12:06;44.00;1.00
490;DHT22;231;48.120;11.576;2023-05-07T09:14:34;44.00;1.00
490;DHT22;231;48.120;11.576;2023-05-07T09:17:01;43.60;1.00
490;DHT22;231;48.120;11.576;2023-05-07T09:19:28;43.90;1.00
490;DHT22;231;48.120;11.576;2023-05-07T09:21:58;44.80;1.00
490;DHT22;231;48.120;11.576;2023-05-07T09:24:26;45.10;1.00
490;DHT22;231;48.120;11.576;2023-05-07T09:26:57;44.00;1.00
490;DHT22;231;48.120;11.576;2023-05-07T09:29:25;43.30;1.00
490;DHT22;231;48.120;11.576;2023-05-07T09:31:54;43.70;1.00
490;DHT22;231;48.120;11.576;2023-05-07T09:34:21;44.40;1.00
490;DHT22;231;48.120;11.576;2023-05-07T09:36:48;44.20;1.00
490;DHT22;231;48.120;11.576;2023-05-07T09:39:15;43.50;1.00
490;DHT22;231;48.120;11.576;2023-05-07T09:41:46;43.30;1.00
490;DHT22;231;48.120;11.576;2023-05-07T09:44:16;44.20;1.00
490;DHT22;231;48.120;11.576;2023-05-07T09:46:44;45.50;1.00
490;DHT22;231;48.120;11.576;2023-05-07T09:49:15;45.70;1.00
490;DHT22;231;48.120;11.576;2023-05-07T09:51:47;46.00;1.00
490;DHT22;231;48.120;11.576;2023-05-07T09:54:15;46.00;1.00
490;DHT22;231;48.120;11.576;2023-05-07T09:56:43;46.30;1.00
490;DHT22;231;48.120;11.576;2023-05-07T09:59:13;46.60;1.00
490;DHT22;231;48.120;11.576;2023-05-07T10:01:43;47.00;1.00
490;DHT22;231;48.120;11.576;2023-05-07T10:04:11;46.80;1.00
490;DHT22;231;48.120;11.576;2023-05-07T10:06:38;45.20;1.00
490;DHT22;231;48.120;11.576;2023-05-07T10:09:05;43.20;1.00
490;DHT22;231;48.120;11.576;2023-05-07T10:11:32;41.50;1.00
490;DHT22;231;48.120;11.576;2023-05-07T10:14:00;40.50;1.00
490;DHT22;231;48.120;11.576;2023-05-07T10:16:28;39.70;1.00
490;DHT22;231;48.120;11.576;2023-05-07T10:18:58;38.90;1.00
490;DHT22;231;48.120;11.576;2023-05-07T10:21:27;37.30;1.00
490;DHT22;231;48.120;11.576;2023-05-07T10:23:59;35.90;1.00
490;DHT22;231;48.120;11.576;2023-05-07T10:26:28;35.10;1.00
490;DHT22;231;48.120;11.576;2023-05-07T10:28:59;34.90;1.00
490;DHT22;231;48.120;11.576;2023-05-07T10:31:46;35.10;1.00
490;DHT22;231;48.120;11.576;2023-05-07T10:34:18;34.80;1.00
490;DHT22;231;48.120;11.576;2023-05-07T10:36:48;33.90;1.00
490;DHT22;231;48.120;11.576;2023-05-07T10:39:15;33.20;1.00
490;DHT22;231;48.120;11.576;2023-05-07T10:41:42;32.50;1.00
490;DHT22;231;48.120;11.576;2023-05-07T10:44:09;32.60;1.00
490;DHT22;231;48.120;11.576;2023-05-07T10:46:37;33.10;1.00
490;DHT22;231;48.120;11.576;2023-05-07T10:49:10;33.60;1.00
490;DHT22;231;48.120;11.576;2023-05-07T10:51:42;34.40;1.00
490;DHT22;231;48.120;11.576;2023-05-07T10:54:22;35.00;1.00
490;DHT22;231;48.120;11.576;2023-05-07T10:56:50;36.00;1.00
490;DHT22;231;48.120;11.576;2023-05-07T10:59:36;36.60;1.00
490;DHT22;231;48.120;11.576;2023-05-07T11:02:09;36.90;1.00
490;DHT22;231;48.120;11.576;2023-05-07T11:04:39;36.80;1.00
490;DHT22;231;48.120;11.576;2023-05-07T11:07:30;36.40;1.00
490;DHT22;231;48.120;11.576;2023-05-07T11:10:02;35.50;1.00
490;DHT22;231;48.120;11.576;2023-05-07T11:12:53;35.20;1.00
490;DHT22;231;48.120;11.576;2023-05-07T11:15:43;35.20;1.00
490;DHT22;231;48.120;11.576;2023-05-07T11:18:11;35.10;1.00
490;DHT22;231;48.120;11.576;2023-05-07T11:20:46;35.20;1.00
490;DHT22;231;48.120;11.576;2023-05-07T11:23:57;35.10;1.00
490;DHT22;231;48.120;11.576;2023-05-07T11:26:25;34.60;1.00
490;DHT22;231;48.120;11.576;2023-05-07T11:28:53;35.10;1.00
490;DHT22;231;48.120;11.576;2023-05-07T11:31:22;35.60;1.00
490;DHT22;231;48.120;11.576;2023-05-07T11:33:50;36.10;1.00
490;DHT22;231;48.120;11.576;2023-05-07T11:36:18;36.50;1.00
490;DHT22;231;48.120;11.576;2023-05-07T11:38:46;36.90;1.00
490;DHT22;231;48.120;11.576;2023-05-07T11:41:16;37.30;1.00
490;DHT22;231;48.120;11.576;2023-05-07T11:43:57;37.50;1.00
490;DHT22;231;48.120;11.576;2023-05-07T11:46:24;37.60;1.00
490;DHT22;231;48.120;11.576;2023-05-07T11:48:51;37.80;1.00
490;DHT22;231;48.120;11.576;2023-05-07T11:51:22;38.00;1.00
490;DHT22;231;48.120;11.576;2023-05-07T11:53:50;37.80;1.00
490;DHT22;231;48.120;11.576;2023-05-07T11:56:18;37.00;1.00
490;DHT22;231;48.120;11.576;2023-05-07T11:58:47;36.00;1.00
490;DHT22;231;48.120;11.576;2023-05-07T12:01:15;34.70;1.00
490;DHT22;231;48.120;11.576;2023-05-07T12:03:44;33.50;1.00
490;DHT22;231;48.120;11.576;2023-05-07T12:06:12;32.70;1.00
490;DHT22;231;48.120;11.576;2023-05-07T12:08:41;32.80;1.00
490;DHT22;231;48.120;11.576;2023-05-07T12:11:09;33.30;1.00
490;DHT22;231;48.120;11.576;2023-05-07T12:13:38;33.60;1.00
490;DHT22;231;48.120;11.576;2023-05-07T12:16:06;33.70;1.00
490;DHT22;231;48.120;11.576;2023-05-07T12:18:35;33.60;1.00
490;DHT22;231;48.120;11.576;2023-05-07T12:21:03;33.30;1.00
490;DHT22;231;48.120;11.576;2023-05-07T12:23:30;33.30;1.00
490;DHT22;231;48.120;11.576;2023-05-07T12:25:57;32.90;1.00
490;DHT22;231;48.120;11.576;2023-05-07T12:28:25;32.60;1.00
490;DHT22;231;48.120;11.576;2023-05-07T12:30:53;32.30;1.00
490;DHT22;231;48.120;11.576;2023-05-07T12:33:24;31.80;1.00
490;DHT22;231;48.120;11.576;2023-05-07T12:35:53;31.50;1.00
490;DHT22;231;48.120;11.576;2023-05-07T12:38:21;31.00;1.00
490;DHT22;231;48.120;11.576;2023-05-07T12:40:48;30.90;1.00
490;DHT22;231;48.120;11.576;2023-05-07T12:43:17;30.50;1.00
490;DHT22;231;48.120;11.576;2023-05-07T12:45:44;29.90;1.00
490;DHT22;231;48.120;11.576;2023-05-07T12:48:13;29.50;1.00
490;DHT22;231;48.120;11.576;2023-05-07T12:50:41;29.10;1.00
490;DHT22;231;48.120;11.576;2023-05-07T12:53:09;28.60;1.00
490;DHT22;231;48.120;11.576;2023-05-07T12:55:44;28.10;1.00
490;DHT22;231;48.120;11.576;2023-05-07T12:58:18;27.80;1.00
490;DHT22;231;48.120;11.576;2023-05-07T13:00:47;27.80;1.00
490;DHT22;231;48.120;11.576;2023-05-07T13:03:23;27.70;1.00
490;DHT22;231;48.120;11.576;2023-05-07T13:05:50;27.40;1.00
490;DHT22;231;48.120;11.576;2023-05-07T13:08:28;27.50;1.00
490;DHT22;231;48.120;11.576;2023-05-07T13:10:56;27.80;1.00
490;DHT22;231;48.120;11.576;2023-05-07T13:13:23;27.90;1.00
490;DHT22;231;48.120;11.576;2023-05-07T13:15:50;28.10;1.00
490;DHT22;231;48.120;11.576;2023-05-07T13:18:17;28.00;1.00
490;DHT22;231;48.120;11.576;2023-05-07T13:20:45;28.20;1.00
490;DHT22;231;48.120;11.576;2023-05-07T13:23:12;28.30;1.00
490;DHT22;231;48.120;11.576;2023-05-07T13:25:39;28.10;1.00
490;DHT22;231;48.120;11.576;2023-05-07T13:28:06;27.70;1.00
490;DHT22;231;48.120;11.576;2023-05-07T13:30:33;27.30;1.00
490;DHT22;231;48.120;11.576;2023-05-07T13:33:00;26.90;1.00
490;DHT22;231;48.120;11.576;2023-05-07T13:35:27;26.50;1.00
490;DHT22;231;48.120;11.576;2023-05-07T13:37:55;26.30;1.00
490;DHT22;231;48.120;11.576;2023-05-07T13:40:22;26.40;1.00
490;DHT22;231;48.120;11.576;2023-05-07T13:42:50;26.50;1.00
490;DHT22;231;48.120;11.576;2023-05-07T13:45:18;26.50;1.00
490;DHT22;231;48.120;11.576;2023-05-07T13:47:45;26.60;1.00
490;DHT22;231;48.120;11.576;2023-05-07T13:50:12;26.60;1.00
490;DHT22;231;48.120;11.576;2023-05-07T13:52:41;26.70;1.00
490;DHT22;231;48.120;11.576;2023-05-07T13:55:10;26.90;1.00
490;DHT22;231;48.120;11.576;2023-05-07T13:57:37;26.90;1.00
490;DHT22;231;48.120;11.576;2023-05-07T14:00:05;26.80;1.00
490;DHT22;231;48.120;11.576;2023-05-07T14:02:32;26.80;1.00
490;DHT22;231;48.120;11.576;2023-05-07T14:04:59;26.70;1.00
490;DHT22;231;48.120;11.576;2023-05-07T14:07:25;26.60;1.00
490;DHT22;231;48.120;11.576;2023-05-07T14:09:52;26.50;1.00
490;DHT22;231;48.120;11.576;2023-05-07T14:19:50;26.00;1.00
490;DHT22;231;48.120;11.576;2023-05-07T14:32:59;25.80;1.00
490;DHT22;231;48.120;11.576;2023-05-07T14:49:27;25.30;1.00
490;DHT22;231;48.120;11.576;2023-05-07T14:52:16;25.10;1.00
490;DHT22;231;48.120;11.576;2023-05-07T14:55:50;25.00;1.00
490;DHT22;231;48.120;11.576;2023-05-07T20:15:36;17.10;23.10
490;DHT22;231;48.120;11.576;2023-05-07T20:18:07;17.10;23.80
490;DHT22;231;48.120;11.576;2023-05-07T20:20:34;17.00;24.50
490;DHT22;231;48.120;11.576;2023-05-07T20:23:01;17.00;25.00
490;DHT22;231;48.120;11.576;2023-05-07T20:25:28;17.00;25.50
490;DHT22;231;48.120;11.576;2023-05-07T20:27:55;17.00;26.10
490;DHT22;231;48.120;11.576;2023-05-07T20:30:22;16.90;26.50
490;DHT22;231;48.120;11.576;2023-05-07T20:32:50;16.90;26.90
490;DHT22;231;48.120;11.576;2023-05-07T20:35:17;16.80;27.00
490;DHT22;231;48.120;11.576;2023-05-07T20:37:44;16.80;27.30
490;DHT22;231;48.120;11.576;2023-05-07T20:40:12;16.70;27.50
490;DHT22;231;48.120;11.576;2023-05-07T20:42:39;16.70;27.80
490;DHT22;231;48.120;11.576;2023-05-07T20:45:08;16.60;28.20
490;DHT22;231;48.120;11.576;2023-05-07T20:47:35;16.60;28.60
490;DHT22;231;48.120;11.576;2023-05-07T20:50:04;16.60;29.00
490;DHT22;231;48.120;11.576;2023-05-07T20:52:31;16.60;29.20
490;DHT22;231;48.120;11.576;2023-05-07T20:54:59;16.50;29.30
490;DHT22;231;48.120;11.576;2023-05-07T20:57:26;16.50;29.60
490;DHT22;231;48.120;11.576;2023-05-07T20:59:53;16.50;29.60
490;DHT22;231;48.120;11.576;2023-05-07T21:02:26;16.50;30.00
490;DHT22;231;48.120;11.576;2023-05-07T21:05:10;16.40;30.10
490;DHT22;231;48.120;11.576;2023-05-07T21:07:37;16.30;30.50
490;DHT22;231;48.120;11.576;2023-05-07T21:10:11;16.30;30.60
490;DHT22;231;48.120;11.576;2023-05-07T21:12:38;16.30;31.00
490;DHT22;231;48.120;11.576;2023-05-07T21:15:07;16.30;30.90
490;DHT22;231;48.120;11.576;2023-05-07T21:17:37;16.30;31.20
490;DHT22;231;48.120;11.576;2023-05-07T21:20:16;16.20;31.30
490;DHT22;231;48.120;11.576;2023-05-07T21:22:43;16.20;31.70
490;DHT22;231;48.120;11.576;2023-05-07T21:25:10;16.10;31.90
490;DHT22;231;48.120;11.576;2023-05-07T21:27:37;16.10;32.60
490;DHT22;231;48.120;11.576;2023-05-07T21:30:05;16.00;33.00
490;DHT22;231;48.120;11.576;2023-05-07T21:32:32;16.00;33.60
490;DHT22;231;48.120;11.576;2023-05-07T21:34:59;15.90;34.20
490;DHT22;231;48.120;11.576;2023-05-07T21:37:27;15.90;34.50
490;DHT22;231;48.120;11.576;2023-05-07T21:39:54;15.90;34.80
490;DHT22;231;48.120;11.576;2023-05-07T21:42:21;15.80;35.10
490;DHT22;231;48.120;11.576;2023-05-07T21:44:48;15.80;35.30
490;DHT22;231;48.120;11.576;2023-05-07T21:47:15;15.80;35.50
490;DHT22;231;48.120;11.576;2023-05-07T21:49:42;15.70;35.50
490;DHT22;231;48.120;11.576;2023-05-07T21:52:10;15.70;36.20
490;DHT22;231;48.120;11.576;2023-05-07T21:54:39;15.70;36.70
490;DHT22;231;48.120;11.576;2023-05-07T21:57:06;15.70;36.90
490;DHT22;231;48.120;11.576;2023-05-07T21:59:33;15.70;37.80
490;DHT22;231;48.120;11.576;2023-05-07T22:02:02;15.60;37.10
490;DHT22;231;48.120;11.576;2023-05-07T22:04:29;15.50;37.60
490;DHT22;231;48.120;11.576;2023-05-07T22:06:56;15.50;38.00
490;DHT22;231;48.120;11.576;2023-05-07T22:09:22;15.50;38.20
490;DHT22;231;48.120;11.576;2023-05-07T22:11:51;15.50;38.20
490;DHT22;231;48.120;11.576;2023-05-07T22:14:17;15.50;38.40
490;DHT22;231;48.120;11.576;2023-05-07T22:16:44;15.40;38.70
490;DHT22;231;48.120;11.576;2023-05-07T22:19:11;15.30;39.00
490;DHT22;231;48.120;11.576;2023-05-07T22:21:41;15.30;39.50
490;DHT22;231;48.120;11.576;2023-05-07T22:24:08;15.20;40.00
490;DHT22;231;48.120;11.576;2023-05-07T22:26:35;15.10;40.30
490;DHT22;231;48.120;11.576;2023-05-07T22:29:04;15.10;41.40
490;DHT22;231;48.120;11.576;2023-05-07T22:31:31;15.10;41.90
490;DHT22;231;48.120;11.576;2023-05-07T22:34:00;15.10;42.10
490;DHT22;231;48.120;11.576;2023-05-07T22:36:27;15.10;41.70